createdAt,value
2022-09-15T00:00:36.655Z,0.67
2022-09-15T00:01:28.630Z,0.81
2022-09-15T00:02:20.523Z,0.81
2022-09-15T00:03:12.221Z,0.81
2022-09-15T00:04:03.996Z,0.81
2022-09-15T00:04:55.845Z,0.67
2022-09-15T00:05:47.626Z,0.81
2022-09-15T00:06:39.461Z,0.81
2022-09-15T00:07:31.259Z,0.81
2022-09-15T00:08:23.089Z,0.81
2022-09-15T00:09:14.871Z,0.67
2022-09-15T00:10:06.704Z,0.67
2022-09-15T00:10:58.500Z,0.55
2022-09-15T00:11:50.295Z,0.81
2022-09-15T00:12:42.094Z,0.55
2022-09-15T00:13:33.912Z,0.55
2022-09-15T00:14:25.717Z,0.44
2022-09-15T00:15:17.522Z,0.55
2022-09-15T00:16:09.413Z,0.55
2022-09-15T00:17:01.304Z,0.55
2022-09-15T00:17:52.934Z,0.55
2022-09-15T00:18:44.752Z,0.55
2022-09-15T00:19:36.481Z,0.55
2022-09-15T00:20:28.353Z,0.44
2022-09-15T00:21:20.134Z,0.55
2022-09-15T00:22:11.965Z,0.55
2022-09-15T00:23:03.758Z,0.55
2022-09-15T00:23:55.564Z,0.55
2022-09-15T00:24:47.346Z,0.55
2022-09-15T00:25:39.140Z,0.67
2022-09-15T00:26:30.958Z,0.55
2022-09-15T00:27:22.758Z,0.55
2022-09-15T00:28:14.564Z,0.67
2022-09-15T00:29:06.293Z,0.55
2022-09-15T00:29:58.159Z,0.44
2022-09-15T00:30:50.103Z,0.35
2022-09-15T00:31:41.756Z,0.55
2022-09-15T00:32:33.576Z,0.44
2022-09-15T00:33:25.345Z,0.55
2022-09-15T00:34:17.166Z,0.35
2022-09-15T00:35:08.954Z,0.44
2022-09-15T00:36:00.717Z,0.35
2022-09-15T00:36:52.538Z,0.44
2022-09-15T00:37:44.357Z,0.26
2022-09-15T00:38:36.051Z,0.35
2022-09-15T00:39:27.947Z,0.26
2022-09-15T00:40:19.842Z,0.35
2022-09-15T00:41:11.557Z,0.35
2022-09-15T00:42:03.340Z,0.44
2022-09-15T00:42:55.140Z,0.35
2022-09-15T00:43:46.929Z,0.44
2022-09-15T00:44:38.747Z,0.44
2022-09-15T00:45:30.588Z,0.35
2022-09-15T00:46:22.421Z,0.35
2022-09-15T00:47:19.545Z,0.35
2022-09-15T00:48:05.919Z,0.55
2022-09-15T00:48:57.728Z,0.44
2022-09-15T00:49:49.524Z,0.35
2022-09-15T00:50:41.305Z,0.35
2022-09-15T00:51:33.114Z,0.44
2022-09-15T00:52:24.890Z,0.35
2022-09-15T00:53:16.622Z,0.26
2022-09-15T00:54:08.495Z,0.35
2022-09-15T00:55:00.332Z,0.35
2022-09-15T00:55:52.072Z,0.44
2022-09-15T00:56:43.872Z,0.44
2022-09-15T00:57:35.655Z,0.26
2022-09-15T00:58:27.471Z,0.35
2022-09-15T00:59:19.234Z,0.35
2022-09-15T01:00:11.054Z,0.26
2022-09-15T01:01:02.839Z,0.26
2022-09-15T01:01:54.774Z,0.35
2022-09-15T01:02:46.333Z,0.35
2022-09-15T01:03:38.221Z,0.44
2022-09-15T01:04:30.000Z,0.35
2022-09-15T01:05:21.805Z,0.35
2022-09-15T01:06:13.755Z,0.44
2022-09-15T01:07:05.387Z,0.35
2022-09-15T01:07:57.175Z,0.26
2022-09-15T01:08:48.975Z,0.35
2022-09-15T01:09:40.754Z,0.26
2022-09-15T01:10:32.564Z,0.26
2022-09-15T01:11:24.336Z,0.26
2022-09-15T01:12:16.063Z,0.26
2022-09-15T01:13:07.919Z,0.35
2022-09-15T01:13:59.748Z,0.19
2022-09-15T01:14:51.514Z,0.26
2022-09-15T01:15:43.314Z,0.26
2022-09-15T01:16:35.157Z,0.35
2022-09-15T01:17:26.862Z,0.19
2022-09-15T01:18:18.669Z,0.26
2022-09-15T01:19:10.478Z,0.26
2022-09-15T01:20:02.193Z,0.26
2022-09-15T01:20:54.062Z,0.19
2022-09-15T01:21:45.867Z,0.26
2022-09-15T01:22:37.669Z,0.26
2022-09-15T01:23:29.438Z,0.35
2022-09-15T01:24:21.231Z,0.19
2022-09-15T01:25:13.028Z,0.26
2022-09-15T01:26:04.818Z,0.26
2022-09-15T01:26:56.518Z,0.19
2022-09-15T01:27:48.404Z,0.26
2022-09-15T01:28:40.186Z,0.35
2022-09-15T01:29:32.004Z,0.19
2022-09-15T01:30:23.775Z,0.19
2022-09-15T01:31:15.646Z,0.13
2022-09-15T01:32:07.362Z,0.35
2022-09-15T01:32:59.172Z,0.19
2022-09-15T01:33:50.972Z,0.19
2022-09-15T01:34:42.759Z,0.13
2022-09-15T01:35:34.530Z,0.26
2022-09-15T01:36:26.262Z,0.19
2022-09-15T01:37:18.118Z,0.19
2022-09-15T01:38:09.929Z,0.19
2022-09-15T01:39:01.661Z,0.26
2022-09-15T01:39:53.599Z,0.26
2022-09-15T01:40:45.296Z,0.19
2022-09-15T01:41:37.131Z,0.13
2022-09-15T01:42:28.885Z,0.26
2022-09-15T01:43:20.688Z,0.19
2022-09-15T01:44:12.457Z,0.19
2022-09-15T01:45:04.257Z,0.26
2022-09-15T01:45:56.126Z,0.26
2022-09-15T01:46:47.870Z,0.19
2022-09-15T01:47:39.618Z,0.13
2022-09-15T01:48:31.424Z,0.08
2022-09-15T01:49:23.177Z,0.19
2022-09-15T01:50:15.003Z,0.13
2022-09-15T01:51:06.698Z,0.19
2022-09-15T01:51:58.576Z,0.19
2022-09-15T01:52:50.356Z,0.26
2022-09-15T01:53:42.665Z,0.26
2022-09-15T01:54:33.940Z,0.19
2022-09-15T01:55:25.726Z,0.26
2022-09-15T01:56:17.534Z,0.19
2022-09-15T01:57:09.335Z,0.19
2022-09-15T01:58:00.994Z,0.19
2022-09-15T01:58:53.014Z,0.19
2022-09-15T01:59:44.649Z,0.19
2022-09-15T02:00:36.410Z,0.19
2022-09-15T02:01:28.414Z,0.26
2022-09-15T02:02:20.085Z,0.08
2022-09-15T02:03:11.793Z,0.26
2022-09-15T02:04:03.592Z,0.13
2022-09-15T02:04:55.387Z,0.26
2022-09-15T02:05:47.173Z,0.08
2022-09-15T02:06:38.950Z,0.13
2022-09-15T02:07:30.744Z,0.13
2022-09-15T02:08:22.528Z,0.13
2022-09-15T02:09:14.332Z,0.19
2022-09-15T02:10:06.047Z,0.13
2022-09-15T02:10:57.896Z,0.13
2022-09-15T02:11:49.670Z,0.13
2022-09-15T02:12:41.480Z,0.13
2022-09-15T02:13:33.241Z,0.13
2022-09-15T02:14:25.049Z,0.13
2022-09-15T02:15:16.732Z,0.13
2022-09-15T02:16:08.638Z,0.19
2022-09-15T02:17:00.390Z,0.19
2022-09-15T02:17:52.186Z,0.13
2022-09-15T02:18:43.960Z,0.13
2022-09-15T02:19:35.752Z,0.13
2022-09-15T02:20:27.531Z,0.13
2022-09-15T02:21:19.328Z,0.08
2022-09-15T02:22:11.093Z,0.13
2022-09-15T02:23:02.902Z,0.08
2022-09-15T02:23:54.644Z,0.19
2022-09-15T02:24:46.373Z,0.13
2022-09-15T02:25:38.222Z,0.19
2022-09-15T02:26:29.998Z,0.13
2022-09-15T02:27:21.771Z,0.19
2022-09-15T02:28:13.567Z,0.19
2022-09-15T02:29:05.338Z,0.13
2022-09-15T02:29:57.055Z,0.13
2022-09-15T02:30:48.890Z,0.13
2022-09-15T02:31:40.739Z,0.19
2022-09-15T02:32:32.456Z,0.08
2022-09-15T02:33:24.264Z,0.19
2022-09-15T02:34:16.012Z,0.13
2022-09-15T02:35:07.829Z,0.13
2022-09-15T02:35:59.599Z,0.13
2022-09-15T02:36:51.374Z,0.19
2022-09-15T02:37:43.145Z,0.19
2022-09-15T02:38:34.932Z,0.19
2022-09-15T02:39:26.659Z,0.19
2022-09-15T02:40:18.647Z,0.13
2022-09-15T02:41:10.274Z,0.08
2022-09-15T02:42:02.073Z,0.13
2022-09-15T02:42:53.838Z,0.08
2022-09-15T02:43:45.618Z,0.13
2022-09-15T02:44:37.410Z,0.13
2022-09-15T02:45:29.266Z,0.13
2022-09-15T02:46:20.955Z,0.13
2022-09-15T02:47:12.774Z,0.08
2022-09-15T02:48:04.453Z,0.08
2022-09-15T02:48:56.229Z,0.13
2022-09-15T02:49:48.064Z,0.13
2022-09-15T02:50:39.863Z,0.13
2022-09-15T02:51:31.616Z,0.13
2022-09-15T02:52:23.424Z,0.19
2022-09-15T02:53:15.179Z,0.13
2022-09-15T02:54:06.901Z,0.19
2022-09-15T02:54:58.703Z,0.13
2022-09-15T02:55:50.516Z,0.19
2022-09-15T02:56:42.256Z,0.19
2022-09-15T02:57:34.076Z,0.19
2022-09-15T02:58:25.828Z,0.19
2022-09-15T02:59:17.605Z,0.19
2022-09-15T03:00:09.352Z,0.19
2022-09-15T03:01:01.093Z,0.19
2022-09-15T03:01:53.029Z,0.08
2022-09-15T03:02:44.705Z,0.19
2022-09-15T03:03:39.917Z,0.19
2022-09-15T03:04:28.267Z,0.26
2022-09-15T03:05:20.039Z,0.13
2022-09-15T03:06:11.854Z,0.19
2022-09-15T03:07:03.623Z,0.19
2022-09-15T03:07:55.411Z,0.19
2022-09-15T03:08:47.169Z,0.13
2022-09-15T03:09:38.953Z,0.13
2022-09-15T03:10:30.739Z,0.08
2022-09-15T03:11:22.528Z,0.19
2022-09-15T03:12:14.303Z,0.13
2022-09-15T03:13:06.098Z,0.13
2022-09-15T03:13:57.858Z,0.19
2022-09-15T03:14:49.679Z,0.13
2022-09-15T03:15:41.429Z,0.13
2022-09-15T03:16:33.254Z,0.13
2022-09-15T03:17:24.995Z,0.19
2022-09-15T03:18:16.721Z,0.13
2022-09-15T03:19:08.559Z,0.13
2022-09-15T03:20:00.375Z,0.19
2022-09-15T03:20:52.154Z,0.19
2022-09-15T03:21:43.930Z,0.08
2022-09-15T03:22:35.725Z,0.13
2022-09-15T03:23:27.511Z,0.13
2022-09-15T03:24:19.272Z,0.08
2022-09-15T03:25:11.069Z,0.08
2022-09-15T03:26:02.846Z,0.13
2022-09-15T03:26:54.638Z,0.04
2022-09-15T03:27:46.324Z,0.13
2022-09-15T03:28:38.212Z,0.08
2022-09-15T03:29:29.983Z,0.08
2022-09-15T03:30:21.789Z,0.13
2022-09-15T03:31:13.566Z,0.13
2022-09-15T03:32:05.358Z,0.08
2022-09-15T03:32:57.133Z,0.08
2022-09-15T03:33:48.952Z,0.19
2022-09-15T03:34:40.691Z,0.13
2022-09-15T03:35:32.519Z,0.13
2022-09-15T03:36:24.288Z,0.13
2022-09-15T03:37:16.075Z,0.19
2022-09-15T03:38:07.842Z,0.19
2022-09-15T03:38:59.646Z,0.13
2022-09-15T03:39:51.468Z,0.19
2022-09-15T03:40:43.205Z,0.13
2022-09-15T03:41:34.979Z,0.04
2022-09-15T03:42:26.711Z,0.08
2022-09-15T03:43:18.803Z,0.13
2022-09-15T03:44:10.355Z,0.08
2022-09-15T03:45:02.116Z,0.08
2022-09-15T03:45:53.988Z,0.04
2022-09-15T03:46:45.685Z,0.04
2022-09-15T03:47:37.520Z,0.08
2022-09-15T03:48:29.250Z,0.04
2022-09-15T03:49:21.056Z,0.08
2022-09-15T03:50:12.832Z,0.13
2022-09-15T03:51:04.616Z,0.08
2022-09-15T03:51:56.321Z,0.08
2022-09-15T03:52:48.186Z,0.08
2022-09-15T03:53:39.970Z,0.13
2022-09-15T03:54:31.766Z,0.08
2022-09-15T03:55:23.512Z,0.08
2022-09-15T03:56:15.297Z,0.08
2022-09-15T03:57:07.091Z,0.04
2022-09-15T03:57:58.862Z,0.04
2022-09-15T03:58:50.646Z,0.08
2022-09-15T03:59:42.441Z,0.04
2022-09-15T04:00:34.239Z,0.08
2022-09-15T04:01:25.985Z,0.08
2022-09-15T04:02:17.816Z,0.19
2022-09-15T04:03:09.546Z,0.08
2022-09-15T04:04:01.219Z,0.08
2022-09-15T04:04:53.107Z,0.08
2022-09-15T04:05:44.879Z,0.08
2022-09-15T04:06:36.593Z,0.04
2022-09-15T04:07:28.445Z,0.08
2022-09-15T04:08:20.227Z,0.08
2022-09-15T04:09:11.999Z,0.04
2022-09-15T04:10:03.813Z,0.08
2022-09-15T04:10:55.570Z,0.08
2022-09-15T04:11:47.373Z,0.02
2022-09-15T04:12:39.123Z,0.08
2022-09-15T04:13:30.927Z,0.04
2022-09-15T04:14:22.677Z,0.08
2022-09-15T04:15:14.512Z,0.04
2022-09-15T04:16:06.244Z,0.08
2022-09-15T04:16:58.052Z,0.13
2022-09-15T04:17:49.809Z,0.02
2022-09-15T04:18:41.607Z,0.08
2022-09-15T04:19:33.380Z,0.04
2022-09-15T04:20:25.169Z,0.08
2022-09-15T04:21:16.867Z,0.08
2022-09-15T04:22:08.724Z,0.13
2022-09-15T04:23:00.515Z,0.04
2022-09-15T04:23:52.431Z,0.08
2022-09-15T04:24:44.073Z,0.13
2022-09-15T04:25:35.851Z,0.08
2022-09-15T04:26:27.614Z,0.04
2022-09-15T04:27:19.414Z,0.13
2022-09-15T04:28:11.183Z,0.13
2022-09-15T04:29:04.592Z,0.08
2022-09-15T04:29:54.731Z,0.08
2022-09-15T04:30:46.452Z,0.08
2022-09-15T04:31:38.314Z,0.04
2022-09-15T04:32:30.082Z,0.04
2022-09-15T04:33:21.869Z,0.08
2022-09-15T04:34:13.653Z,0.04
2022-09-15T04:35:05.411Z,0.08
2022-09-15T04:35:57.121Z,0.04
2022-09-15T04:36:48.981Z,0.13
2022-09-15T04:37:40.807Z,0.04
2022-09-15T04:38:32.537Z,0.08
2022-09-15T04:39:24.319Z,0.08
2022-09-15T04:40:16.136Z,0.04
2022-09-15T04:41:07.880Z,0.08
2022-09-15T04:41:59.683Z,0.08
2022-09-15T04:42:51.462Z,0.08
2022-09-15T04:43:43.222Z,0.13
2022-09-15T04:44:35.015Z,0.08
2022-09-15T04:45:26.691Z,0.13
2022-09-15T04:46:18.679Z,0.04
2022-09-15T04:47:10.293Z,0.08
2022-09-15T04:48:02.172Z,0.02
2022-09-15T04:48:54.038Z,0.08
2022-09-15T04:49:45.723Z,0.08
2022-09-15T04:50:37.502Z,0.08
2022-09-15T04:51:29.298Z,0.13
2022-09-15T04:52:21.060Z,0.13
2022-09-15T04:53:12.847Z,0.13
2022-09-15T04:54:04.628Z,0.02
2022-09-15T04:54:56.389Z,0.19
2022-09-15T04:55:48.190Z,0.08
2022-09-15T04:56:39.980Z,0.13
2022-09-15T04:57:31.741Z,0.08
2022-09-15T04:58:23.562Z,0.04
2022-09-15T04:59:15.310Z,0.13
2022-09-15T05:00:07.060Z,0.13
2022-09-15T05:00:58.904Z,0.04
2022-09-15T05:01:50.723Z,0.13
2022-09-15T05:02:42.448Z,0.08
2022-09-15T05:03:34.250Z,0.13
2022-09-15T05:04:26.013Z,0.13
2022-09-15T05:05:17.821Z,0.02
2022-09-15T05:06:09.583Z,0.08
2022-09-15T05:07:01.378Z,0.13
2022-09-15T05:07:53.139Z,0.13
2022-09-15T05:08:44.979Z,0.13
2022-09-15T05:09:36.638Z,0.08
2022-09-15T05:10:28.481Z,0.13
2022-09-15T05:11:20.263Z,0.13
2022-09-15T05:12:12.032Z,0.08
2022-09-15T05:13:03.811Z,0.08
2022-09-15T05:13:55.591Z,0.08
2022-09-15T05:14:47.352Z,0.13
2022-09-15T05:15:39.139Z,0.13
2022-09-15T05:16:30.967Z,0.13
2022-09-15T05:17:26.143Z,0.13
2022-09-15T05:18:14.467Z,0.08
2022-09-15T05:19:06.279Z,0.04
2022-09-15T05:19:58.007Z,0.08
2022-09-15T05:20:49.808Z,0.13
2022-09-15T05:21:41.581Z,0.08
2022-09-15T05:22:33.359Z,0.13
2022-09-15T05:23:25.121Z,0.04
2022-09-15T05:24:16.885Z,0.08
2022-09-15T05:25:08.685Z,0.08
2022-09-15T05:26:00.477Z,0.08
2022-09-15T05:26:52.237Z,0.08
2022-09-15T05:27:44.018Z,0.04
2022-09-15T05:28:35.800Z,0.13
2022-09-15T05:29:27.585Z,0.04
2022-09-15T05:30:36.792Z,0.13
2022-09-15T05:31:11.233Z,0.08
2022-09-15T05:32:02.912Z,0.08
2022-09-15T05:32:54.728Z,0.13
2022-09-15T05:33:46.489Z,0.08
2022-09-15T05:34:38.277Z,0.08
2022-09-15T05:35:30.054Z,0.08
2022-09-15T05:36:21.856Z,0.08
2022-09-15T05:37:13.619Z,0.08
2022-09-15T05:38:05.406Z,0.08
2022-09-15T05:38:57.169Z,0.13
2022-09-15T05:39:49.037Z,0.08
2022-09-15T05:40:40.759Z,0.04
2022-09-15T05:41:32.546Z,0.13
2022-09-15T05:42:24.317Z,0.13
2022-09-15T05:43:16.104Z,0.19
2022-09-15T05:44:07.880Z,0.08
2022-09-15T05:44:59.679Z,0.08
2022-09-15T05:45:51.440Z,0.08
2022-09-15T05:46:43.267Z,0.04
2022-09-15T05:47:35.004Z,0.13
2022-09-15T05:48:26.715Z,0.13
2022-09-15T05:49:18.566Z,0.13
2022-09-15T05:50:10.372Z,0.08
2022-09-15T05:51:02.133Z,0.13
2022-09-15T05:51:53.931Z,0.04
2022-09-15T05:52:45.699Z,0.13
2022-09-15T05:53:37.498Z,0.04
2022-09-15T05:54:29.270Z,0.08
2022-09-15T05:55:21.056Z,0.13
2022-09-15T05:56:12.835Z,0.08
2022-09-15T05:57:04.627Z,0.13
2022-09-15T05:57:56.411Z,0.08
2022-09-15T05:58:48.209Z,0.13
2022-09-15T05:59:39.957Z,0.13
2022-09-15T06:00:31.757Z,0.13
2022-09-15T06:01:23.641Z,0.13
2022-09-15T06:02:15.409Z,0.13
2022-09-15T06:03:07.061Z,0.08
2022-09-15T06:03:58.877Z,0.08
2022-09-15T06:04:50.656Z,0.13
2022-09-15T06:05:42.443Z,0.08
2022-09-15T06:06:34.230Z,0.04
2022-09-15T06:07:26.029Z,0.08
2022-09-15T06:08:17.784Z,0.08
2022-09-15T06:09:09.593Z,0.04
2022-09-15T06:10:01.316Z,0.08
2022-09-15T06:10:53.161Z,0.08
2022-09-15T06:11:44.934Z,0.08
2022-09-15T06:12:36.635Z,0.04
2022-09-15T06:13:28.493Z,0.13
2022-09-15T06:14:20.284Z,0.13
2022-09-15T06:15:12.051Z,0.13
2022-09-15T06:16:03.975Z,0.08
2022-09-15T06:16:55.616Z,0.13
2022-09-15T06:17:47.431Z,0.19
2022-09-15T06:18:39.189Z,0.04
2022-09-15T06:19:30.983Z,0.13
2022-09-15T06:20:22.757Z,0.19
2022-09-15T06:21:14.548Z,0.13
2022-09-15T06:22:06.315Z,0.08
2022-09-15T06:22:58.119Z,0.13
2022-09-15T06:23:50.894Z,0.13
2022-09-15T06:24:41.682Z,0.13
2022-09-15T06:25:33.459Z,0.13
2022-09-15T06:26:25.266Z,0.04
2022-09-15T06:27:16.960Z,0.13
2022-09-15T06:28:08.824Z,0.13
2022-09-15T06:29:00.598Z,0.08
2022-09-15T06:29:52.417Z,0.08
2022-09-15T06:30:44.165Z,0.04
2022-09-15T06:31:36.028Z,0.08
2022-09-15T06:32:27.734Z,0.08
2022-09-15T06:33:19.548Z,0.08
2022-09-15T06:34:11.334Z,0.08
2022-09-15T06:35:03.025Z,0.08
2022-09-15T06:35:54.873Z,0.04
2022-09-15T06:36:46.597Z,0.08
2022-09-15T06:37:38.430Z,0.08
2022-09-15T06:38:30.236Z,0.08
2022-09-15T06:39:22.021Z,0.02
2022-09-15T06:40:13.852Z,0.04
2022-09-15T06:41:05.576Z,0.13
2022-09-15T06:42:02.238Z,0.08
2022-09-15T06:42:49.136Z,0.04
2022-09-15T06:43:40.937Z,0.08
2022-09-15T06:44:32.707Z,0.04
2022-09-15T06:45:24.514Z,0.02
2022-09-15T06:46:16.352Z,0.08
2022-09-15T06:47:08.124Z,0.13
2022-09-15T06:48:22.862Z,0.08
2022-09-15T06:48:51.664Z,0.08
2022-09-15T06:49:43.421Z,0.04
2022-09-15T06:50:35.228Z,0.04
2022-09-15T06:51:26.936Z,0.08
2022-09-15T06:52:18.797Z,0.04
2022-09-15T06:53:10.586Z,0.04
2022-09-15T06:54:02.371Z,0.04
2022-09-15T06:54:54.142Z,0.13
2022-09-15T06:55:45.929Z,0.08
2022-09-15T06:56:38.304Z,0.08
2022-09-15T06:57:29.515Z,0.08
2022-09-15T06:58:21.267Z,0.04
2022-09-15T06:59:13.085Z,0.08
2022-09-15T07:00:04.788Z,0.08
2022-09-15T07:00:56.619Z,0.13
2022-09-15T07:01:48.453Z,0.08
2022-09-15T07:02:40.374Z,0.08
2022-09-15T07:03:32.084Z,0.13
2022-09-15T07:04:23.717Z,0.08
2022-09-15T07:05:15.526Z,0.04
2022-09-15T07:06:07.286Z,0.08
2022-09-15T07:06:59.080Z,0.08
2022-09-15T07:07:50.898Z,0.04
2022-09-15T07:08:42.745Z,0.04
2022-09-15T07:09:34.447Z,0.08
2022-09-15T07:10:26.267Z,0.04
2022-09-15T07:11:17.998Z,0.04
2022-09-15T07:12:09.784Z,0.08
2022-09-15T07:13:01.457Z,0.02
2022-09-15T07:13:53.458Z,0.08
2022-09-15T07:14:45.113Z,0.08
2022-09-15T07:15:36.797Z,0.02
2022-09-15T07:16:28.725Z,0.04
2022-09-15T07:17:20.461Z,0.04
2022-09-15T07:18:12.238Z,0.04
2022-09-15T07:19:04.014Z,0.08
2022-09-15T07:19:55.807Z,0.04
2022-09-15T07:20:47.503Z,0.08
2022-09-15T07:21:39.379Z,0.04
2022-09-15T07:22:31.147Z,0.04
2022-09-15T07:23:22.933Z,0.04
2022-09-15T07:24:14.681Z,0.08
2022-09-15T07:25:06.404Z,0.08
2022-09-15T07:25:58.249Z,0.08
2022-09-15T07:26:50.061Z,0.04
2022-09-15T07:27:41.809Z,0.08
2022-09-15T07:28:33.605Z,0.08
2022-09-15T07:29:25.378Z,0.04
2022-09-15T07:30:17.082Z,0.08
2022-09-15T07:31:09.162Z,0.13
2022-09-15T07:32:00.796Z,0.04
2022-09-15T07:32:52.482Z,0.02
2022-09-15T07:33:44.386Z,0.04
2022-09-15T07:34:36.031Z,0.00
2022-09-15T07:35:27.844Z,0.08
2022-09-15T07:36:19.590Z,0.08
2022-09-15T07:37:11.380Z,0.08
2022-09-15T07:38:03.150Z,0.08
2022-09-15T07:38:54.947Z,0.04
2022-09-15T07:39:46.723Z,0.04
2022-09-15T07:40:38.613Z,0.04
2022-09-15T07:41:30.254Z,0.04
2022-09-15T07:42:22.055Z,0.04
2022-09-15T07:43:13.820Z,0.08
2022-09-15T07:44:05.633Z,0.08
2022-09-15T07:44:57.312Z,0.04
2022-09-15T07:45:49.233Z,0.04
2022-09-15T07:46:40.961Z,0.04
2022-09-15T07:47:32.748Z,0.04
2022-09-15T07:48:26.584Z,0.04
2022-09-15T07:49:16.328Z,0.08
2022-09-15T07:50:08.084Z,0.04
2022-09-15T07:50:59.914Z,0.02
2022-09-15T07:51:51.639Z,0.08
2022-09-15T07:52:43.450Z,0.08
2022-09-15T07:53:35.213Z,0.08
2022-09-15T07:54:26.955Z,0.04
2022-09-15T07:55:18.765Z,0.04
2022-09-15T07:56:10.567Z,0.02
2022-09-15T07:57:02.334Z,0.08
2022-09-15T07:57:54.118Z,0.08
2022-09-15T07:58:45.885Z,0.08
2022-09-15T07:59:41.037Z,0.02
2022-09-15T08:00:29.465Z,0.04
2022-09-15T08:01:21.305Z,0.08
2022-09-15T08:02:13.035Z,0.08
2022-09-15T08:03:04.816Z,0.08
2022-09-15T08:03:56.606Z,0.04
2022-09-15T08:04:48.368Z,0.04
2022-09-15T08:05:44.787Z,0.04
2022-09-15T08:06:31.942Z,0.08
2022-09-15T08:07:23.697Z,0.04
2022-09-15T08:08:15.509Z,0.08
2022-09-15T08:09:07.182Z,0.04
2022-09-15T08:09:59.049Z,0.00
2022-09-15T08:10:50.827Z,0.04
2022-09-15T08:11:42.605Z,0.04
2022-09-15T08:12:34.380Z,0.04
2022-09-15T08:13:26.183Z,0.04
2022-09-15T08:14:17.936Z,0.04
2022-09-15T08:15:09.729Z,0.02
2022-09-15T08:16:01.609Z,0.08
2022-09-15T08:16:53.292Z,0.04
2022-09-15T08:17:45.053Z,0.04
2022-09-15T08:18:36.776Z,0.04
2022-09-15T08:19:28.636Z,0.04
2022-09-15T08:20:20.498Z,0.02
2022-09-15T08:21:12.167Z,0.02
2022-09-15T08:22:03.968Z,0.04
2022-09-15T08:22:55.729Z,0.08
2022-09-15T08:23:47.524Z,0.04
2022-09-15T08:24:39.311Z,0.02
2022-09-15T08:25:31.099Z,0.04
2022-09-15T08:26:22.867Z,0.04
2022-09-15T08:27:14.673Z,0.02
2022-09-15T08:28:06.423Z,0.08
2022-09-15T08:28:58.213Z,0.08
2022-09-15T08:29:49.968Z,0.04
2022-09-15T08:30:41.767Z,0.08
2022-09-15T08:31:33.594Z,0.04
2022-09-15T08:32:25.347Z,0.13
2022-09-15T08:33:17.037Z,0.08
2022-09-15T08:34:08.922Z,0.08
2022-09-15T08:35:00.684Z,0.08
2022-09-15T08:35:52.490Z,0.04
2022-09-15T08:36:44.248Z,0.04
2022-09-15T08:37:36.070Z,0.08
2022-09-15T08:38:27.823Z,0.08
2022-09-15T08:39:19.632Z,0.04
2022-09-15T08:40:11.508Z,0.04
2022-09-15T08:41:03.214Z,0.08
2022-09-15T08:41:54.994Z,0.08
2022-09-15T08:42:46.782Z,0.04
2022-09-15T08:43:38.577Z,0.04
2022-09-15T08:44:30.370Z,0.08
2022-09-15T08:45:22.155Z,0.08
2022-09-15T08:46:14.017Z,0.08
2022-09-15T08:47:05.826Z,0.08
2022-09-15T08:47:57.535Z,0.08
2022-09-15T08:48:49.323Z,0.04
2022-09-15T08:49:51.605Z,0.13
2022-09-15T08:50:32.970Z,0.08
2022-09-15T08:51:24.730Z,0.13
2022-09-15T08:52:16.508Z,0.08
2022-09-15T08:53:08.330Z,0.08
2022-09-15T08:54:00.107Z,0.13
2022-09-15T08:54:51.917Z,0.08
2022-09-15T08:55:43.697Z,0.04
2022-09-15T08:56:35.516Z,0.08
2022-09-15T08:57:27.210Z,0.13
2022-09-15T08:58:19.096Z,0.08
2022-09-15T08:59:10.878Z,0.04
2022-09-15T09:00:02.718Z,0.08
2022-09-15T09:00:54.466Z,0.08
2022-09-15T09:01:46.386Z,0.04
2022-09-15T09:02:38.095Z,0.08
2022-09-15T09:03:29.879Z,0.08
2022-09-15T09:04:21.657Z,0.13
2022-09-15T09:05:13.470Z,0.08
2022-09-15T09:06:05.261Z,0.08
2022-09-15T09:06:56.988Z,0.13
2022-09-15T09:07:48.855Z,0.08
2022-09-15T09:08:40.679Z,0.04
2022-09-15T09:09:32.511Z,0.13
2022-09-15T09:10:24.267Z,0.13
2022-09-15T09:11:16.042Z,0.02
2022-09-15T09:12:07.848Z,0.04
2022-09-15T09:12:59.639Z,0.08
2022-09-15T09:13:51.450Z,0.08
2022-09-15T09:14:43.248Z,0.02
2022-09-15T09:15:35.117Z,0.02
2022-09-15T09:16:26.801Z,0.08
2022-09-15T09:17:18.639Z,0.08
2022-09-15T09:18:10.430Z,0.08
2022-09-15T09:19:02.235Z,0.13
2022-09-15T09:19:54.024Z,0.04
2022-09-15T09:20:45.823Z,0.08
2022-09-15T09:21:37.553Z,0.13
2022-09-15T09:22:29.416Z,0.08
2022-09-15T09:23:21.229Z,0.08
2022-09-15T09:24:13.018Z,0.08
2022-09-15T09:25:16.236Z,0.08
2022-09-15T09:25:56.620Z,0.04
2022-09-15T09:26:48.418Z,0.04
2022-09-15T09:27:40.293Z,0.04
2022-09-15T09:28:32.026Z,0.13
2022-09-15T09:29:23.830Z,0.13
2022-09-15T09:30:15.621Z,0.08
2022-09-15T09:31:07.390Z,0.08
2022-09-15T09:31:59.223Z,0.08
2022-09-15T09:32:51.058Z,0.04
2022-09-15T09:33:47.322Z,0.08
2022-09-15T09:34:34.643Z,0.08
2022-09-15T09:35:26.437Z,0.08
2022-09-15T09:36:18.244Z,0.04
2022-09-15T09:37:10.040Z,0.08
2022-09-15T09:38:01.770Z,0.13
2022-09-15T09:38:53.648Z,0.08
2022-09-15T09:39:45.536Z,0.04
2022-09-15T09:40:37.302Z,0.08
2022-09-15T09:41:29.059Z,0.08
2022-09-15T09:42:20.857Z,0.08
2022-09-15T09:43:12.677Z,0.04
2022-09-15T09:44:04.476Z,0.08
2022-09-15T09:44:56.285Z,0.08
2022-09-15T09:45:48.124Z,0.08
2022-09-15T09:46:40.022Z,0.08
2022-09-15T09:47:31.681Z,0.08
2022-09-15T09:48:23.497Z,0.08
2022-09-15T09:49:15.283Z,0.08
2022-09-15T09:50:07.055Z,0.08
2022-09-15T09:50:58.890Z,0.08
2022-09-15T09:51:50.717Z,0.08
2022-09-15T09:52:42.513Z,0.04
2022-09-15T09:53:34.337Z,0.13
2022-09-15T09:54:26.134Z,0.13
2022-09-15T09:55:17.920Z,0.08
2022-09-15T09:56:09.723Z,0.04
2022-09-15T09:57:01.502Z,0.08
2022-09-15T09:57:53.340Z,0.08
2022-09-15T09:58:45.164Z,0.08
2022-09-15T09:59:36.978Z,0.13
2022-09-15T10:00:28.775Z,0.08
2022-09-15T10:01:20.651Z,0.08
2022-09-15T10:02:12.386Z,0.08
2022-09-15T10:03:04.193Z,0.04
2022-09-15T10:03:55.992Z,0.13
2022-09-15T10:04:47.838Z,0.02
2022-09-15T10:05:39.618Z,0.08
2022-09-15T10:06:31.398Z,0.04
2022-09-15T10:07:23.229Z,0.13
2022-09-15T10:08:15.034Z,0.08
2022-09-15T10:09:06.910Z,0.04
2022-09-15T10:09:58.641Z,0.04
2022-09-15T10:10:50.467Z,0.08
2022-09-15T10:11:42.279Z,0.08
2022-09-15T10:12:34.069Z,0.04
2022-09-15T10:13:25.869Z,0.04
2022-09-15T10:14:17.626Z,0.08
2022-09-15T10:15:09.485Z,0.04
2022-09-15T10:16:01.388Z,0.08
2022-09-15T10:16:53.164Z,0.04
2022-09-15T10:17:44.915Z,0.04
2022-09-15T10:18:36.711Z,0.04
2022-09-15T10:19:28.537Z,0.04
2022-09-15T10:20:20.364Z,0.04
2022-09-15T10:21:12.162Z,0.04
2022-09-15T10:22:03.954Z,0.13
2022-09-15T10:22:55.790Z,0.02
2022-09-15T10:23:47.489Z,0.04
2022-09-15T10:24:39.427Z,0.02
2022-09-15T10:25:44.517Z,0.04
2022-09-15T10:26:23.013Z,0.04
2022-09-15T10:27:14.817Z,0.04
2022-09-15T10:28:06.640Z,0.04
2022-09-15T10:28:58.447Z,0.13
2022-09-15T10:29:50.265Z,0.04
2022-09-15T10:30:42.074Z,0.08
2022-09-15T10:31:34.071Z,0.08
2022-09-15T10:32:25.983Z,0.02
2022-09-15T10:33:17.447Z,0.08
2022-09-15T10:34:09.331Z,0.02
2022-09-15T10:35:01.173Z,0.08
2022-09-15T10:35:52.969Z,0.04
2022-09-15T10:36:44.791Z,0.02
2022-09-15T10:37:36.586Z,0.04
2022-09-15T10:38:28.403Z,0.04
2022-09-15T10:39:20.200Z,0.08
2022-09-15T10:40:12.130Z,0.02
2022-09-15T10:41:03.832Z,0.04
2022-09-15T10:41:55.661Z,0.08
2022-09-15T10:42:47.457Z,0.08
2022-09-15T10:43:39.284Z,0.04
2022-09-15T10:44:31.078Z,0.04
2022-09-15T10:45:22.971Z,0.08
2022-09-15T10:46:14.749Z,0.04
2022-09-15T10:47:06.528Z,0.08
2022-09-15T10:47:58.342Z,0.13
2022-09-15T10:48:50.156Z,0.08
2022-09-15T10:49:41.960Z,0.04
2022-09-15T10:50:33.788Z,0.13
2022-09-15T10:51:25.613Z,0.13
2022-09-15T10:52:17.349Z,0.13
2022-09-15T10:53:09.218Z,0.04
2022-09-15T10:54:01.018Z,0.08
2022-09-15T10:54:52.856Z,0.08
2022-09-15T10:55:52.911Z,0.08
2022-09-15T10:56:36.483Z,0.08
2022-09-15T10:57:28.325Z,0.13
2022-09-15T10:58:20.141Z,0.04
2022-09-15T10:59:11.960Z,0.08
2022-09-15T11:00:03.797Z,0.13
2022-09-15T11:00:55.625Z,0.04
2022-09-15T11:01:47.388Z,0.08
2022-09-15T11:02:39.269Z,0.04
2022-09-15T11:03:31.074Z,0.08
2022-09-15T11:04:22.899Z,0.04
2022-09-15T11:05:16.873Z,0.08
2022-09-15T11:06:06.689Z,0.08
2022-09-15T11:06:58.352Z,0.13
2022-09-15T11:07:50.192Z,0.08
2022-09-15T11:08:42.109Z,0.04
2022-09-15T11:09:33.843Z,0.08
2022-09-15T11:10:25.666Z,0.13
2022-09-15T11:11:17.481Z,0.04
2022-09-15T11:12:09.318Z,0.04
2022-09-15T11:13:01.155Z,0.08
2022-09-15T11:13:52.959Z,0.08
2022-09-15T11:14:44.796Z,0.02
2022-09-15T11:15:36.616Z,0.04
2022-09-15T11:16:28.508Z,0.08
2022-09-15T11:17:20.266Z,0.08
2022-09-15T11:18:12.115Z,0.04
2022-09-15T11:19:03.913Z,0.13
2022-09-15T11:19:55.764Z,0.08
2022-09-15T11:20:47.509Z,0.08
2022-09-15T11:21:39.439Z,0.04
2022-09-15T11:22:31.243Z,0.13
2022-09-15T11:23:23.095Z,0.04
2022-09-15T11:24:14.897Z,0.08
2022-09-15T11:25:06.672Z,0.04
2022-09-15T11:25:58.567Z,0.08
2022-09-15T11:26:50.401Z,0.08
2022-09-15T11:27:42.219Z,0.04
2022-09-15T11:28:34.060Z,0.13
2022-09-15T11:29:25.878Z,0.02